Manila, Kentucky
Current Conditions -  °F | °C
As of 3:55 AM on Monday 22 Dec 2014 (Local Time) from KSJS Reporting Station
Scattered Clouds Scattered Clouds  
Wind Chill: 28°   Ceiling: Unl
Heat Index: 32°   Visibility: 10mi
Dew Point: 29°   Wind: 5mph
Humidity: 88%   Direction: 70°ENE
Pressure: 30.05"   Gusts: NA
Location:  37.8399°N, 82.9411°W
Report Text: KSJS 220855Z AUTO 07004KT 10SM SCT043 00/M02 A3005 RMK AO2 T00021016
Loading
Personal Weather Stations






























Interactive Weather Map New forecast layout! Learn more

10-Day Weather Forecast

Advertisements
Track Severe Weather on mobile